sensor_id;sensor_type;location;lat;lon;timestamp;pressure;altitude;pressure_sealevel;temperature;humidity
12676;BME280;63820;65.654;21.944;2023-03-04T00:01:53;99533.88;;;-1.71;100.00
12676;BME280;63820;65.654;21.944;2023-03-04T00:04:37;99532.22;;;-1.78;100.00
12676;BME280;63820;65.654;21.944;2023-03-04T00:07:21;99527.09;;;-1.72;100.00
12676;BME280;63820;65.654;21.944;2023-03-04T00:10:06;99527.13;;;-1.75;100.00
12676;BME280;63820;65.654;21.944;2023-03-04T00:12:50;99536.38;;;-1.65;100.00
12676;BME280;63820;65.654;21.944;2023-03-04T00:15:34;99538.13;;;-1.70;100.00
12676;BME280;63820;65.654;21.944;2023-03-04T00:18:18;99527.88;;;-1.67;100.00
12676;BME280;63820;65.654;21.944;2023-03-04T00:21:04;99542.38;;;-1.72;100.00
12676;BME280;63820;65.654;21.944;2023-03-04T00:23:49;99538.19;;;-1.78;100.00
12676;BME280;63820;65.654;21.944;2023-03-04T00:26:33;99551.78;;;-1.80;100.00
12676;BME280;63820;65.654;21.944;2023-03-04T00:29:17;99552.63;;;-1.80;100.00
12676;BME280;63820;65.654;21.944;2023-03-04T00:32:02;99552.69;;;-1.84;100.00
12676;BME280;63820;65.654;21.944;2023-03-04T00:34:46;99556.03;;;-1.81;100.00
12676;BME280;63820;65.654;21.944;2023-03-04T00:37:30;99554.31;;;-1.77;100.00
12676;BME280;63820;65.654;21.944;2023-03-04T00:40:14;99562.81;;;-1.78;100.00
12676;BME280;63820;65.654;21.944;2023-03-04T00:42:59;99556.06;;;-1.84;100.00
12676;BME280;63820;65.654;21.944;2023-03-04T00:45:44;99560.28;;;-1.78;100.00
12676;BME280;63820;65.654;21.944;2023-03-04T00:48:28;99557.69;;;-1.75;100.00
12676;BME280;63820;65.654;21.944;2023-03-04T00:51:12;99564.50;;;-1.77;100.00
12676;BME280;63820;65.654;21.944;2023-03-04T00:53:56;99573.88;;;-1.81;100.00
12676;BME280;63820;65.654;21.944;2023-03-04T00:56:41;99571.31;;;-1.79;100.00
12676;BME280;63820;65.654;21.944;2023-03-04T00:59:24;99578.13;;;-1.80;100.00
12676;BME280;63820;65.654;21.944;2023-03-04T01:02:09;99576.44;;;-1.82;100.00
12676;BME280;63820;65.654;21.944;2023-03-04T01:04:53;99583.28;;;-1.87;100.00
12676;BME280;63820;65.654;21.944;2023-03-04T01:07:38;99590.09;;;-1.91;100.00
12676;BME280;63820;65.654;21.944;2023-03-04T01:10:22;99587.59;;;-1.97;100.00
12676;BME280;63820;65.654;21.944;2023-03-04T01:13:06;99589.34;;;-2.02;100.00
12676;BME280;63820;65.654;21.944;2023-03-04T01:15:51;99590.22;;;-2.08;100.00
12676;BME280;63820;65.654;21.944;2023-03-04T01:18:35;99593.66;;;-2.09;100.00
12676;BME280;63820;65.654;21.944;2023-03-04T01:21:20;99600.34;;;-1.99;100.00
12676;BME280;63820;65.654;21.944;2023-03-04T01:24:04;99608.13;;;-2.12;100.00
12676;BME280;63820;65.654;21.944;2023-03-04T01:26:48;99608.06;;;-2.08;100.00
12676;BME280;63820;65.654;21.944;2023-03-04T01:29:33;99608.97;;;-2.12;100.00
12676;BME280;63820;65.654;21.944;2023-03-04T01:32:17;99601.41;;;-2.27;100.00
12676;BME280;63820;65.654;21.944;2023-03-04T01:35:01;99612.47;;;-2.29;100.00
12676;BME280;63820;65.654;21.944;2023-03-04T01:37:46;99601.44;;;-2.35;100.00
12676;BME280;63820;65.654;21.944;2023-03-04T01:40:30;99615.03;;;-2.36;100.00
12676;BME280;63820;65.654;21.944;2023-03-04T01:43:21;99619.28;;;-2.38;100.00
12676;BME280;63820;65.654;21.944;2023-03-04T01:46:06;99606.56;;;-2.41;100.00
12676;BME280;63820;65.654;21.944;2023-03-04T01:48:51;99616.78;;;-2.48;100.00
12676;BME280;63820;65.654;21.944;2023-03-04T01:51:36;99622.72;;;-2.46;100.00
12676;BME280;63820;65.654;21.944;2023-03-04T01:54:21;99624.47;;;-2.56;100.00
12676;BME280;63820;65.654;21.944;2023-03-04T01:57:15;99624.44;;;-2.51;100.00
12676;BME280;63820;65.654;21.944;2023-03-04T02:03:10;99631.28;;;-2.64;100.00
12676;BME280;63820;65.654;21.944;2023-03-04T02:05:55;99626.25;;;-2.81;100.00
12676;BME280;63820;65.654;21.944;2023-03-04T02:08:39;99632.19;;;-2.77;100.00
12676;BME280;63820;65.654;21.944;2023-03-04T02:11:23;99642.34;;;-2.76;100.00
12676;BME280;63820;65.654;21.944;2023-03-04T02:14:09;99633.06;;;-2.86;100.00
12676;BME280;63820;65.654;21.944;2023-03-04T02:16:54;99636.47;;;-2.90;100.00
12676;BME280;63820;65.654;21.944;2023-03-04T02:28:58;99638.13;;;-2.83;100.00
12676;BME280;63820;65.654;21.944;2023-03-04T02:31:48;99629.69;;;-3.00;100.00
12676;BME280;63820;65.654;21.944;2023-03-04T02:34:34;99635.63;;;-3.04;100.00
12676;BME280;63820;65.654;21.944;2023-03-04T02:37:19;99631.38;;;-2.98;100.00
12676;BME280;63820;65.654;21.944;2023-03-04T02:40:05;99633.09;;;-2.98;100.00
12676;BME280;63820;65.654;21.944;2023-03-04T02:42:50;99631.38;;;-2.93;100.00
12676;BME280;63820;65.654;21.944;2023-03-04T02:48:24;99616.19;;;-3.17;100.00
12676;BME280;63820;65.654;21.944;2023-03-04T02:51:08;99627.22;;;-3.18;100.00
12676;BME280;63820;65.654;21.944;2023-03-04T02:53:52;99627.22;;;-3.20;100.00
12676;BME280;63820;65.654;21.944;2023-03-04T02:56:36;99626.38;;;-3.26;100.00
12676;BME280;63820;65.654;21.944;2023-03-04T02:59:21;99631.47;;;-3.33;100.00
12676;BME280;63820;65.654;21.944;2023-03-04T03:02:07;99632.34;;;-3.50;100.00
12676;BME280;63820;65.654;21.944;2023-03-04T03:04:51;99630.63;;;-3.59;100.00
12676;BME280;63820;65.654;21.944;2023-03-04T03:07:35;99620.47;;;-3.59;100.00
12676;BME280;63820;65.654;21.944;2023-03-04T03:10:20;99639.09;;;-3.63;100.00
12676;BME280;63820;65.654;21.944;2023-03-04T03:13:04;99638.25;;;-3.68;100.00
12676;BME280;63820;65.654;21.944;2023-03-04T03:15:48;99634.03;;;-3.77;100.00
12676;BME280;63820;65.654;21.944;2023-03-04T03:18:32;99628.09;;;-3.83;100.00
12676;BME280;63820;65.654;21.944;2023-03-04T03:21:16;99634.00;;;-3.92;100.00
12676;BME280;63820;65.654;21.944;2023-03-04T03:24:01;99640.78;;;-3.82;100.00
12676;BME280;63820;65.654;21.944;2023-03-04T03:26:45;99642.47;;;-3.85;100.00
12676;BME280;63820;65.654;21.944;2023-03-04T03:29:28;99642.47;;;-3.90;100.00
12676;BME280;63820;65.654;21.944;2023-03-04T03:32:13;99644.16;;;-3.95;100.00
12676;BME280;63820;65.654;21.944;2023-03-04T03:34:56;99640.78;;;-3.92;100.00
12676;BME280;63820;65.654;21.944;2023-03-04T03:37:41;99649.22;;;-3.97;100.00
12676;BME280;63820;65.654;21.944;2023-03-04T03:40:25;99640.78;;;-3.96;100.00
12676;BME280;63820;65.654;21.944;2023-03-04T03:43:09;99645.88;;;-3.88;99.08
12676;BME280;63820;65.654;21.944;2023-03-04T03:45:54;99645.88;;;-3.88;98.10
12676;BME280;63820;65.654;21.944;2023-03-04T03:48:38;99647.53;;;-4.01;97.57
12676;BME280;63820;65.654;21.944;2023-03-04T03:51:21;99655.16;;;-3.91;96.99
12676;BME280;63820;65.654;21.944;2023-03-04T03:54:05;99654.34;;;-3.87;95.63
12676;BME280;63820;65.654;21.944;2023-03-04T03:56:49;99652.59;;;-4.02;96.14
12676;BME280;63820;65.654;21.944;2023-03-04T03:59:34;99655.16;;;-4.04;96.11
12676;BME280;63820;65.654;21.944;2023-03-04T04:02:18;99657.69;;;-4.07;94.65
12676;BME280;63820;65.654;21.944;2023-03-04T04:05:02;99660.22;;;-4.04;94.86
12676;BME280;63820;65.654;21.944;2023-03-04T04:07:46;99661.03;;;-4.12;94.75
12676;BME280;63820;65.654;21.944;2023-03-04T04:10:30;99659.34;;;-4.12;94.17
12676;BME280;63820;65.654;21.944;2023-03-04T04:13:14;99663.59;;;-4.08;93.06
12676;BME280;63820;65.654;21.944;2023-03-04T04:15:58;99659.38;;;-4.06;92.05
12676;BME280;63820;65.654;21.944;2023-03-04T04:18:43;99655.97;;;-4.14;92.38
12676;BME280;63820;65.654;21.944;2023-03-04T04:21:27;99661.91;;;-4.16;92.54
12676;BME280;63820;65.654;21.944;2023-03-04T04:24:11;99661.03;;;-4.29;92.51
12676;BME280;63820;65.654;21.944;2023-03-04T04:26:55;99643.25;;;-4.35;92.15
12676;BME280;63820;65.654;21.944;2023-03-04T04:29:40;99665.28;;;-4.26;91.68
12676;BME280;63820;65.654;21.944;2023-03-04T04:32:24;99662.72;;;-4.34;92.10
12676;BME280;63820;65.654;21.944;2023-03-04T04:35:09;99658.47;;;-4.38;91.87
12676;BME280;63820;65.654;21.944;2023-03-04T04:37:53;99666.03;;;-4.47;92.62
12676;BME280;63820;65.654;21.944;2023-03-04T04:40:37;99662.69;;;-4.42;91.93
12676;BME280;63820;65.654;21.944;2023-03-04T04:43:21;99665.22;;;-4.42;90.91
12676;BME280;63820;65.654;21.944;2023-03-04T04:46:07;99671.09;;;-4.53;91.80
12676;BME280;63820;65.654;21.944;2023-03-04T04:48:51;99676.16;;;-4.56;91.47
12676;BME280;63820;65.654;21.944;2023-03-04T04:51:37;99671.88;;;-4.64;91.95
12676;BME280;63820;65.654;21.944;2023-03-04T04:54:22;99670.19;;;-4.68;92.67
12676;BME280;63820;65.654;21.944;2023-03-04T04:57:06;99668.44;;;-4.75;93.50
12676;BME280;63820;65.654;21.944;2023-03-04T04:59:50;99673.53;;;-4.75;91.62
12676;BME280;63820;65.654;21.944;2023-03-04T05:02:35;99676.03;;;-4.81;92.02
12676;BME280;63820;65.654;21.944;2023-03-04T05:05:19;99681.06;;;-4.87;93.40
12676;BME280;63820;65.654;21.944;2023-03-04T05:08:04;99670.06;;;-4.86;92.20
12676;BME280;63820;65.654;21.944;2023-03-04T05:10:48;99670.88;;;-4.95;93.59
12676;BME280;63820;65.654;21.944;2023-03-04T05:13:32;99668.28;;;-5.02;93.28
12676;BME280;63820;65.654;21.944;2023-03-04T05:16:17;99672.53;;;-5.01;93.50
12676;BME280;63820;65.654;21.944;2023-03-04T05:19:02;99665.75;;;-5.02;92.80
12676;BME280;63820;65.654;21.944;2023-03-04T05:21:46;99659.03;;;-4.96;92.09
12676;BME280;63820;65.654;21.944;2023-03-04T05:24:31;99657.34;;;-4.97;92.52
12676;BME280;63820;65.654;21.944;2023-03-04T05:27:14;99665.00;;;-4.89;91.49
12676;BME280;63820;65.654;21.944;2023-03-04T05:29:58;99660.75;;;-4.88;91.30
12676;BME280;63820;65.654;21.944;2023-03-04T05:32:43;99664.13;;;-4.89;90.71
12676;BME280;63820;65.654;21.944;2023-03-04T05:35:27;99662.44;;;-4.90;91.10
12676;BME280;63820;65.654;21.944;2023-03-04T05:38:13;99659.03;;;-4.97;91.18
12676;BME280;63820;65.654;21.944;2023-03-04T05:41:00;99664.88;;;-5.07;92.56
12676;BME280;63820;65.654;21.944;2023-03-04T05:43:45;99652.13;;;-5.19;93.79
12676;BME280;63820;65.654;21.944;2023-03-04T05:46:29;99662.28;;;-5.16;94.33
12676;BME280;63820;65.654;21.944;2023-03-04T05:49:13;99663.97;;;-5.17;95.38
12676;BME280;63820;65.654;21.944;2023-03-04T05:51:57;99661.41;;;-5.18;95.48
12676;BME280;63820;65.654;21.944;2023-03-04T05:54:41;99661.44;;;-5.20;95.08
12676;BME280;63820;65.654;21.944;2023-03-04T05:57:25;99658.97;;;-5.08;93.58
12676;BME280;63820;65.654;21.944;2023-03-04T06:00:10;99667.44;;;-5.01;93.22
12676;BME280;63820;65.654;21.944;2023-03-04T06:02:56;99676.81;;;-4.91;92.47
12676;BME280;63820;65.654;21.944;2023-03-04T06:05:40;99664.16;;;-4.83;92.77
12676;BME280;63820;65.654;21.944;2023-03-04T06:08:24;99666.72;;;-4.80;91.05
12676;BME280;63820;65.654;21.944;2023-03-04T06:11:08;99673.50;;;-4.79;91.14
12676;BME280;63820;65.654;21.944;2023-03-04T06:13:53;99678.63;;;-4.66;89.34
12676;BME280;63820;65.654;21.944;2023-03-04T06:16:37;99680.34;;;-4.66;91.25
12676;BME280;63820;65.654;21.944;2023-03-04T06:19:21;99677.84;;;-4.55;88.86
12676;BME280;63820;65.654;21.944;2023-03-04T06:22:07;99646.50;;;-4.68;88.52
12676;BME280;63820;65.654;21.944;2023-03-04T06:24:51;99684.69;;;-4.35;86.12
12676;BME280;63820;65.654;21.944;2023-03-04T06:27:35;99690.63;;;-4.37;85.35
12676;BME280;63820;65.654;21.944;2023-03-04T06:30:20;99685.56;;;-4.31;84.79
12676;BME280;63820;65.654;21.944;2023-03-04T06:33:04;99696.59;;;-4.26;83.64
12676;BME280;63820;65.654;21.944;2023-03-04T06:35:52;99691.53;;;-4.21;83.54
12676;BME280;63820;65.654;21.944;2023-03-04T06:38:37;99695.75;;;-4.20;82.86
12676;BME280;63820;65.654;21.944;2023-03-04T06:41:21;99704.22;;;-4.20;81.71
12676;BME280;63820;65.654;21.944;2023-03-04T06:44:05;99695.75;;;-4.25;80.74
12676;BME280;63820;65.654;21.944;2023-03-04T06:46:50;99702.53;;;-4.18;80.08
12676;BME280;63820;65.654;21.944;2023-03-04T06:49:34;99697.44;;;-4.12;79.61
12676;BME280;63820;65.654;21.944;2023-03-04T06:52:19;99696.59;;;-4.11;79.44
12676;BME280;63820;65.654;21.944;2023-03-04T06:55:04;99705.06;;;-4.13;78.49
12676;BME280;63820;65.654;21.944;2023-03-04T06:57:48;99709.28;;;-4.23;78.92
12676;BME280;63820;65.654;21.944;2023-03-04T07:00:32;99713.47;;;-4.31;78.92
12676;BME280;63820;65.654;21.944;2023-03-04T07:03:17;99710.09;;;-4.30;78.86
12676;BME280;63820;65.654;21.944;2023-03-04T07:06:01;99715.16;;;-4.33;78.69
12676;BME280;63820;65.654;21.944;2023-03-04T07:08:46;99706.75;;;-4.26;79.29
12676;BME280;63820;65.654;21.944;2023-03-04T07:11:31;99715.19;;;-4.32;79.03
12676;BME280;63820;65.654;21.944;2023-03-04T07:14:15;99718.56;;;-4.30;79.18
12676;BME280;63820;65.654;21.944;2023-03-04T07:16:59;99719.41;;;-4.32;78.22
12676;BME280;63820;65.654;21.944;2023-03-04T07:19:43;99711.78;;;-4.37;78.61
12676;BME280;63820;65.654;21.944;2023-03-04T07:22:28;99713.44;;;-4.39;78.75
12676;BME280;63820;65.654;21.944;2023-03-04T07:25:12;99717.72;;;-4.29;78.43
12676;BME280;63820;65.654;21.944;2023-03-04T07:27:57;99716.06;;;-4.16;77.71
12676;BME280;63820;65.654;21.944;2023-03-04T07:30:40;99721.16;;;-4.07;76.71
12676;BME280;63820;65.654;21.944;2023-03-04T07:33:25;99721.19;;;-4.01;75.80
12676;BME280;63820;65.654;21.944;2023-03-04T07:36:09;99715.34;;;-3.65;74.88
12676;BME280;63820;65.654;21.944;2023-03-04T07:38:54;99717.03;;;-2.98;72.53
12676;BME280;63820;65.654;21.944;2023-03-04T07:41:40;99726.16;;;-2.10;69.05
12676;BME280;63820;65.654;21.944;2023-03-04T07:44:24;99719.53;;;-1.10;65.05
12676;BME280;63820;65.654;21.944;2023-03-04T07:47:08;99719.63;;;0.29;60.08
12676;BME280;63820;65.654;21.944;2023-03-04T07:49:52;99712.22;;;1.65;58.35
12676;BME280;63820;65.654;21.944;2023-03-04T07:52:42;99718.47;;;3.06;49.82
12676;BME280;63820;65.654;21.944;2023-03-04T07:55:27;99721.88;;;2.34;50.77
12676;BME280;63820;65.654;21.944;2023-03-04T07:58:13;99725.44;;;3.01;50.04
12676;BME280;63820;65.654;21.944;2023-03-04T08:00:57;99733.38;;;3.89;47.03
12676;BME280;63820;65.654;21.944;2023-03-04T08:03:41;99733.78;;;4.05;46.44
12676;BME280;63820;65.654;21.944;2023-03-04T08:06:26;99732.09;;;4.32;45.08
12676;BME280;63820;65.654;21.944;2023-03-04T08:09:11;99713.22;;;3.74;45.49
12676;BME280;63820;65.654;21.944;2023-03-04T08:11:56;99738.91;;;3.43;44.96
12676;BME280;63820;65.654;21.944;2023-03-04T08:14:40;99737.38;;;5.10;43.67
12676;BME280;63820;65.654;21.944;2023-03-04T08:17:24;99738.09;;;6.13;41.86
12676;BME280;63820;65.654;21.944;2023-03-04T08:20:08;99733.41;;;6.22;40.02
12676;BME280;63820;65.654;21.944;2023-03-04T08:22:53;99742.63;;;7.56;39.61
12676;BME280;63820;65.654;21.944;2023-03-04T08:25:39;99740.47;;;8.80;36.10
12676;BME280;63820;65.654;21.944;2023-03-04T08:28:23;99733.06;;;8.53;36.36
12676;BME280;63820;65.654;21.944;2023-03-04T08:31:08;99739.03;;;10.42;33.98
12676;BME280;63820;65.654;21.944;2023-03-04T08:33:52;99742.34;;;9.80;33.08
12676;BME280;63820;65.654;21.944;2023-03-04T08:36:36;99741.84;;;11.45;31.66
12676;BME280;63820;65.654;21.944;2023-03-04T08:39:21;99748.47;;;10.91;31.46
12676;BME280;63820;65.654;21.944;2023-03-04T08:42:05;99752.59;;;10.79;30.85
12676;BME280;63820;65.654;21.944;2023-03-04T08:44:49;99744.28;;;9.76;33.19
12676;BME280;63820;65.654;21.944;2023-03-04T08:47:33;99743.50;;;12.04;30.38
12676;BME280;63820;65.654;21.944;2023-03-04T08:50:18;99749.66;;;14.03;28.34
12676;BME280;63820;65.654;21.944;2023-03-04T08:53:02;99744.31;;;15.25;26.35
12676;BME280;63820;65.654;21.944;2023-03-04T08:55:47;99743.53;;;15.36;26.16
12676;BME280;63820;65.654;21.944;2023-03-04T08:58:32;99754.72;;;16.51;24.57
12676;BME280;63820;65.654;21.944;2023-03-04T09:01:16;99754.28;;;14.85;25.35
12676;BME280;63820;65.654;21.944;2023-03-04T09:04:01;99754.53;;;16.75;24.08
12676;BME280;63820;65.654;21.944;2023-03-04T09:06:45;99761.53;;;17.50;23.57
12676;BME280;63820;65.654;21.944;2023-03-04T09:09:29;99767.75;;;17.90;23.00
12676;BME280;63820;65.654;21.944;2023-03-04T09:12:13;99759.81;;;15.63;23.69
12676;BME280;63820;65.654;21.944;2023-03-04T09:14:58;99767.91;;;14.54;24.89
12676;BME280;63820;65.654;21.944;2023-03-04T09:17:42;99762.72;;;16.16;23.51
12676;BME280;63820;65.654;21.944;2023-03-04T09:20:26;99762.47;;;15.97;23.55
12676;BME280;63820;65.654;21.944;2023-03-04T09:23:11;99761.56;;;15.52;24.76
12676;BME280;63820;65.654;21.944;2023-03-04T09:25:55;99769.81;;;14.39;25.63
12676;BME280;63820;65.654;21.944;2023-03-04T09:28:39;99760.06;;;14.54;25.51
12676;BME280;63820;65.654;21.944;2023-03-04T09:31:23;99770.94;;;15.43;24.94
12676;BME280;63820;65.654;21.944;2023-03-04T09:34:08;99784.59;;;14.02;26.78
12676;BME280;63820;65.654;21.944;2023-03-04T09:36:52;99785.88;;;16.11;24.13
12676;BME280;63820;65.654;21.944;2023-03-04T09:39:37;99777.03;;;16.01;23.85
12676;BME280;63820;65.654;21.944;2023-03-04T09:42:27;99772.25;;;15.37;25.02
12676;BME280;63820;65.654;21.944;2023-03-04T09:45:26;99772.91;;;17.71;22.47
12676;BME280;63820;65.654;21.944;2023-03-04T09:48:14;99765.25;;;17.47;22.89
12676;BME280;63820;65.654;21.944;2023-03-04T09:51:20;99768.44;;;18.13;22.15
12676;BME280;63820;65.654;21.944;2023-03-04T10:01:07;99762.28;;;19.03;21.29
12676;BME280;63820;65.654;21.944;2023-03-04T10:06:30;99758.41;;;19.16;20.59
12676;BME280;63820;65.654;21.944;2023-03-04T10:09:18;99762.28;;;18.93;20.58
12676;BME280;63820;65.654;21.944;2023-03-04T10:12:09;99756.19;;;16.87;21.81
12676;BME280;63820;65.654;21.944;2023-03-04T10:17:47;99751.78;;;17.20;21.39
12676;BME280;63820;65.654;21.944;2023-03-04T10:23:34;99752.56;;;19.42;20.14
12676;BME280;63820;65.654;21.944;2023-03-04T10:26:21;99746.78;;;18.50;20.65
12676;BME280;63820;65.654;21.944;2023-03-04T10:29:05;99749.94;;;19.32;20.41
12676;BME280;63820;65.654;21.944;2023-03-04T10:31:52;99741.03;;;18.66;20.63
12676;BME280;63820;65.654;21.944;2023-03-04T10:34:38;99744.59;;;17.63;21.75
12676;BME280;63820;65.654;21.944;2023-03-04T10:37:22;99748.22;;;17.10;21.98
12676;BME280;63820;65.654;21.944;2023-03-04T10:40:20;99739.75;;;17.89;21.45
12676;BME280;63820;65.654;21.944;2023-03-04T10:43:08;99744.09;;;17.70;21.48
12676;BME280;63820;65.654;21.944;2023-03-04T10:45:57;99736.19;;;17.49;21.85
12676;BME280;63820;65.654;21.944;2023-03-04T10:48:42;99733.63;;;17.58;22.33
12676;BME280;63820;65.654;21.944;2023-03-04T10:51:28;99737.25;;;17.88;21.52
12676;BME280;63820;65.654;21.944;2023-03-04T10:59:57;99732.22;;;16.70;22.27
12676;BME280;63820;65.654;21.944;2023-03-04T11:02:41;99732.25;;;17.02;22.20
12676;BME280;63820;65.654;21.944;2023-03-04T11:05:31;99720.16;;;16.78;22.06
12676;BME280;63820;65.654;21.944;2023-03-04T11:08:22;99733.41;;;17.09;22.00
12676;BME280;63820;65.654;21.944;2023-03-04T11:11:40;99727.16;;;16.46;22.53
12676;BME280;63820;65.654;21.944;2023-03-04T11:14:34;99728.34;;;15.63;23.71
12676;BME280;63820;65.654;21.944;2023-03-04T11:17:41;99724.00;;;16.63;22.88
12676;BME280;63820;65.654;21.944;2023-03-04T11:20:38;99732.56;;;16.76;22.66
12676;BME280;63820;65.654;21.944;2023-03-04T11:23:44;99732.28;;;15.80;23.95
12676;BME280;63820;65.654;21.944;2023-03-04T11:42:53;99714.94;;;15.44;23.90
12676;BME280;63820;65.654;21.944;2023-03-04T11:49:28;99718.63;;;15.42;23.19
12676;BME280;63820;65.654;21.944;2023-03-04T11:58:34;99718.81;;;14.92;23.86
12676;BME280;63820;65.654;21.944;2023-03-04T12:01:25;99712.53;;;14.47;23.96
12676;BME280;63820;65.654;21.944;2023-03-04T12:04:19;99715.88;;;14.97;23.72
12676;BME280;63820;65.654;21.944;2023-03-04T12:07:34;99711.06;;;13.68;25.81
12676;BME280;63820;65.654;21.944;2023-03-04T12:10:48;99708.19;;;14.22;25.35
12676;BME280;63820;65.654;21.944;2023-03-04T12:29:15;99708.44;;;13.94;25.04
12676;BME280;63820;65.654;21.944;2023-03-04T12:35:32;99711.84;;;12.78;26.06
12676;BME280;63820;65.654;21.944;2023-03-04T12:41:36;99690.38;;;12.34;27.20
12676;BME280;63820;65.654;21.944;2023-03-04T12:44:24;99695.84;;;12.02;27.31
12676;BME280;63820;65.654;21.944;2023-03-04T12:47:21;99701.25;;;11.85;27.55
12676;BME280;63820;65.654;21.944;2023-03-04T12:59:14;99699.47;;;10.22;30.05
12676;BME280;63820;65.654;21.944;2023-03-04T13:02:23;99701.91;;;9.59;31.70
12676;BME280;63820;65.654;21.944;2023-03-04T13:08:37;99703.81;;;9.55;31.47
12676;BME280;63820;65.654;21.944;2023-03-04T13:17:35;99697.66;;;8.71;31.99
12676;BME280;63820;65.654;21.944;2023-03-04T13:26:15;99705.50;;;7.37;34.01
12676;BME280;63820;65.654;21.944;2023-03-04T13:34:47;99696.09;;;6.30;36.06
12676;BME280;63820;65.654;21.944;2023-03-04T13:37:35;99699.63;;;6.05;37.18
12676;BME280;63820;65.654;21.944;2023-03-04T13:49:03;99703.25;;;5.76;37.66
12676;BME280;63820;65.654;21.944;2023-03-04T13:51:50;99710.28;;;5.48;38.75
12676;BME280;63820;65.654;21.944;2023-03-04T13:54:36;99708.94;;;5.61;37.99
12676;BME280;63820;65.654;21.944;2023-03-04T13:57:21;99703.59;;;5.42;38.81
12676;BME280;63820;65.654;21.944;2023-03-04T14:00:11;99696.78;;;4.64;42.25
12676;BME280;63820;65.654;21.944;2023-03-04T14:02:55;99701.06;;;4.37;41.91
12676;BME280;63820;65.654;21.944;2023-03-04T14:05:39;99701.59;;;3.28;42.81
12676;BME280;63820;65.654;21.944;2023-03-04T14:08:24;99705.72;;;1.90;46.99
12676;BME280;63820;65.654;21.944;2023-03-04T14:11:14;99707.69;;;0.85;49.85
12676;BME280;63820;65.654;21.944;2023-03-04T14:13:59;99703.44;;;0.29;52.50
12676;BME280;63820;65.654;21.944;2023-03-04T14:16:52;99710.78;;;-0.08;52.43
12676;BME280;63820;65.654;21.944;2023-03-04T14:19:43;99713.66;;;-0.36;52.10
12676;BME280;63820;65.654;21.944;2023-03-04T14:30:54;99711.34;;;-1.53;58.75
12676;BME280;63820;65.654;21.944;2023-03-04T14:33:43;99691.91;;;-1.68;58.24
12676;BME280;63820;65.654;21.944;2023-03-04T14:36:31;99708.84;;;-1.58;58.01
12676;BME280;63820;65.654;21.944;2023-03-04T14:39:17;99705.53;;;-1.75;59.75
12676;BME280;63820;65.654;21.944;2023-03-04T14:42:09;99703.13;;;-1.97;59.31
12676;BME280;63820;65.654;21.944;2023-03-04T14:44:56;99710.91;;;-2.18;59.67
12676;BME280;63820;65.654;21.944;2023-03-04T14:47:44;99710.09;;;-2.29;60.65
12676;BME280;63820;65.654;21.944;2023-03-04T14:50:30;99717.81;;;-2.53;62.23
12676;BME280;63820;65.654;21.944;2023-03-04T14:53:17;99714.47;;;-2.74;63.01
12676;BME280;63820;65.654;21.944;2023-03-04T14:56:09;99714.50;;;-2.98;64.06
12676;BME280;63820;65.654;21.944;2023-03-04T14:58:55;99709.41;;;-3.07;65.24
12676;BME280;63820;65.654;21.944;2023-03-04T15:01:42;99716.19;;;-3.05;66.43
12676;BME280;63820;65.654;21.944;2023-03-04T15:04:28;99716.19;;;-3.00;67.22
12676;BME280;63820;65.654;21.944;2023-03-04T15:07:15;99713.63;;;-2.96;67.27
12676;BME280;63820;65.654;21.944;2023-03-04T15:10:07;99722.97;;;-2.93;67.66
12676;BME280;63820;65.654;21.944;2023-03-04T15:12:57;99723.81;;;-2.96;68.38
12676;BME280;63820;65.654;21.944;2023-03-04T15:15:46;99719.59;;;-2.98;67.22
12676;BME280;63820;65.654;21.944;2023-03-04T15:18:30;99717.03;;;-3.01;68.82
12676;BME280;63820;65.654;21.944;2023-03-04T15:24:03;99723.81;;;-2.96;73.43
12676;BME280;63820;65.654;21.944;2023-03-04T15:26:49;99726.34;;;-2.88;74.85
12676;BME280;63820;65.654;21.944;2023-03-04T15:29:33;99721.28;;;-2.91;77.18
12676;BME280;63820;65.654;21.944;2023-03-04T15:32:17;99728.91;;;-2.92;77.47
12676;BME280;63820;65.654;21.944;2023-03-04T15:35:01;99728.06;;;-2.99;78.43
12676;BME280;63820;65.654;21.944;2023-03-04T15:37:47;99720.44;;;-3.07;78.77
12676;BME280;63820;65.654;21.944;2023-03-04T15:40:38;99725.56;;;-3.19;78.40
12676;BME280;63820;65.654;21.944;2023-03-04T15:43:24;99728.09;;;-3.26;77.85
12676;BME280;63820;65.654;21.944;2023-03-04T15:46:10;99728.09;;;-3.33;77.01
12676;BME280;63820;65.654;21.944;2023-03-04T15:48:55;99736.56;;;-3.34;78.07
12676;BME280;63820;65.654;21.944;2023-03-04T15:51:39;99729.78;;;-3.35;80.08
12676;BME280;63820;65.654;21.944;2023-03-04T15:54:25;99728.09;;;-3.33;81.65
12676;BME280;63820;65.654;21.944;2023-03-04T15:57:19;99734.88;;;-3.22;80.41
12676;BME280;63820;65.654;21.944;2023-03-04T16:00:04;99728.09;;;-3.22;83.23
12676;BME280;63820;65.654;21.944;2023-03-04T16:02:48;99730.63;;;-3.28;87.30
12676;BME280;63820;65.654;21.944;2023-03-04T16:05:35;99732.31;;;-3.38;87.49
12676;BME280;63820;65.654;21.944;2023-03-04T16:08:21;99739.94;;;-3.42;90.46
12676;BME280;63820;65.654;21.944;2023-03-04T16:11:13;99731.47;;;-3.53;96.78
12676;BME280;63820;65.654;21.944;2023-03-04T16:13:58;99740.75;;;-3.60;97.53
12676;BME280;63820;65.654;21.944;2023-03-04T16:16:43;99747.53;;;-3.65;96.80
12676;BME280;63820;65.654;21.944;2023-03-04T16:19:29;99736.50;;;-3.70;97.68
12676;BME280;63820;65.654;21.944;2023-03-04T16:22:19;99738.22;;;-3.69;99.44
12676;BME280;63820;65.654;21.944;2023-03-04T16:25:14;99730.59;;;-3.69;100.00
12676;BME280;63820;65.654;21.944;2023-03-04T16:28:00;99737.34;;;-3.73;100.00
12676;BME280;63820;65.654;21.944;2023-03-04T16:30:47;99739.03;;;-3.75;100.00
12676;BME280;63820;65.654;21.944;2023-03-04T16:33:32;99741.56;;;-3.76;100.00
12676;BME280;63820;65.654;21.944;2023-03-04T16:36:22;99743.25;;;-3.78;100.00
12676;BME280;63820;65.654;21.944;2023-03-04T16:39:15;99743.25;;;-3.83;100.00
12676;BME280;63820;65.654;21.944;2023-03-04T16:42:03;99760.19;;;-3.83;100.00